sensor_id;sensor_type;location;lat;lon;timestamp;temperature;humidity
2363;DHT22;64265;51.664;7.626;2023-04-16T00:00:54;21.20;68.00
2363;DHT22;64265;51.664;7.626;2023-04-16T00:03:21;21.20;68.00
2363;DHT22;64265;51.664;7.626;2023-04-16T00:05:48;21.20;67.90
2363;DHT22;64265;51.664;7.626;2023-04-16T00:08:16;21.20;68.00
2363;DHT22;64265;51.664;7.626;2023-04-16T00:10:42;21.10;67.90
2363;DHT22;64265;51.664;7.626;2023-04-16T00:13:09;21.20;68.00
2363;DHT22;64265;51.664;7.626;2023-04-16T00:15:36;21.10;67.90
2363;DHT22;64265;51.664;7.626;2023-04-16T00:18:02;21.10;67.90
2363;DHT22;64265;51.664;7.626;2023-04-16T00:20:29;21.10;67.90
2363;DHT22;64265;51.664;7.626;2023-04-16T00:22:57;21.10;68.00
2363;DHT22;64265;51.664;7.626;2023-04-16T00:25:25;21.10;68.00
2363;DHT22;64265;51.664;7.626;2023-04-16T00:27:51;21.10;68.00
2363;DHT22;64265;51.664;7.626;2023-04-16T00:30:18;21.10;67.90
2363;DHT22;64265;51.664;7.626;2023-04-16T00:32:45;21.10;68.00
2363;DHT22;64265;51.664;7.626;2023-04-16T00:35:11;21.00;67.80
2363;DHT22;64265;51.664;7.626;2023-04-16T00:37:38;21.10;68.00
2363;DHT22;64265;51.664;7.626;2023-04-16T00:40:06;21.00;67.90
2363;DHT22;64265;51.664;7.626;2023-04-16T00:42:34;21.00;68.00
2363;DHT22;64265;51.664;7.626;2023-04-16T00:45:01;21.00;68.00
2363;DHT22;64265;51.664;7.626;2023-04-16T00:47:28;21.00;67.90
2363;DHT22;64265;51.664;7.626;2023-04-16T00:49:55;21.00;67.90
2363;DHT22;64265;51.664;7.626;2023-04-16T00:52:21;21.00;67.90
2363;DHT22;64265;51.664;7.626;2023-04-16T00:54:48;21.00;67.90
2363;DHT22;64265;51.664;7.626;2023-04-16T00:57:16;21.00;67.90
2363;DHT22;64265;51.664;7.626;2023-04-16T00:59:46;21.00;68.00
2363;DHT22;64265;51.664;7.626;2023-04-16T01:02:13;21.00;68.10
2363;DHT22;64265;51.664;7.626;2023-04-16T01:04:40;21.00;68.10
2363;DHT22;64265;51.664;7.626;2023-04-16T01:07:07;20.90;67.90
2363;DHT22;64265;51.664;7.626;2023-04-16T01:09:33;21.00;68.00
2363;DHT22;64265;51.664;7.626;2023-04-16T01:12:00;20.90;67.90
2363;DHT22;64265;51.664;7.626;2023-04-16T01:14:27;20.90;67.90
2363;DHT22;64265;51.664;7.626;2023-04-16T01:16:57;21.00;68.00
2363;DHT22;64265;51.664;7.626;2023-04-16T01:19:24;20.90;67.80
2363;DHT22;64265;51.664;7.626;2023-04-16T01:21:52;20.90;68.00
2363;DHT22;64265;51.664;7.626;2023-04-16T01:24:18;20.90;67.90
2363;DHT22;64265;51.664;7.626;2023-04-16T01:26:45;20.90;68.10
2363;DHT22;64265;51.664;7.626;2023-04-16T01:29:12;20.90;68.10
2363;DHT22;64265;51.664;7.626;2023-04-16T01:31:38;20.90;68.10
2363;DHT22;64265;51.664;7.626;2023-04-16T01:34:05;20.90;68.10
2363;DHT22;64265;51.664;7.626;2023-04-16T01:36:32;20.90;68.00
2363;DHT22;64265;51.664;7.626;2023-04-16T01:39:00;20.90;68.00
2363;DHT22;64265;51.664;7.626;2023-04-16T01:41:27;20.90;68.00
2363;DHT22;64265;51.664;7.626;2023-04-16T01:43:53;20.90;68.10
2363;DHT22;64265;51.664;7.626;2023-04-16T01:46:26;20.90;68.00
2363;DHT22;64265;51.664;7.626;2023-04-16T01:48:54;20.90;68.10
2363;DHT22;64265;51.664;7.626;2023-04-16T01:51:20;20.90;67.90
2363;DHT22;64265;51.664;7.626;2023-04-16T01:53:48;20.90;68.00
2363;DHT22;64265;51.664;7.626;2023-04-16T01:56:16;20.90;68.00
2363;DHT22;64265;51.664;7.626;2023-04-16T01:58:43;20.80;67.90
2363;DHT22;64265;51.664;7.626;2023-04-16T02:01:10;20.80;67.90
2363;DHT22;64265;51.664;7.626;2023-04-16T02:03:37;20.80;68.00
2363;DHT22;64265;51.664;7.626;2023-04-16T02:06:04;20.80;67.90
2363;DHT22;64265;51.664;7.626;2023-04-16T02:08:31;20.80;68.00
2363;DHT22;64265;51.664;7.626;2023-04-16T02:10:59;20.80;67.90
2363;DHT22;64265;51.664;7.626;2023-04-16T02:13:27;20.80;67.90
2363;DHT22;64265;51.664;7.626;2023-04-16T02:15:53;20.80;67.90
2363;DHT22;64265;51.664;7.626;2023-04-16T02:18:20;20.80;68.00
2363;DHT22;64265;51.664;7.626;2023-04-16T02:20:47;20.80;68.10
2363;DHT22;64265;51.664;7.626;2023-04-16T02:23:14;20.80;68.00
2363;DHT22;64265;51.664;7.626;2023-04-16T02:25:42;20.80;68.10
2363;DHT22;64265;51.664;7.626;2023-04-16T02:28:10;20.80;68.00
2363;DHT22;64265;51.664;7.626;2023-04-16T02:30:40;20.80;68.00
2363;DHT22;64265;51.664;7.626;2023-04-16T02:33:08;20.80;68.00
2363;DHT22;64265;51.664;7.626;2023-04-16T02:35:36;20.80;67.90
2363;DHT22;64265;51.664;7.626;2023-04-16T02:38:03;20.70;67.90
2363;DHT22;64265;51.664;7.626;2023-04-16T02:40:31;20.70;67.90
2363;DHT22;64265;51.664;7.626;2023-04-16T02:42:57;20.70;67.90
2363;DHT22;64265;51.664;7.626;2023-04-16T02:45:24;20.70;67.90
2363;DHT22;64265;51.664;7.626;2023-04-16T02:47:52;20.70;67.90
2363;DHT22;64265;51.664;7.626;2023-04-16T02:50:19;20.70;67.90
2363;DHT22;64265;51.664;7.626;2023-04-16T02:52:46;20.70;67.90
2363;DHT22;64265;51.664;7.626;2023-04-16T02:55:13;20.70;67.90
2363;DHT22;64265;51.664;7.626;2023-04-16T02:57:40;20.70;67.80
2363;DHT22;64265;51.664;7.626;2023-04-16T03:00:08;20.70;67.90
2363;DHT22;64265;51.664;7.626;2023-04-16T03:02:34;20.70;67.90
2363;DHT22;64265;51.664;7.626;2023-04-16T03:05:03;20.70;67.90
2363;DHT22;64265;51.664;7.626;2023-04-16T03:07:30;20.70;68.00
2363;DHT22;64265;51.664;7.626;2023-04-16T03:09:57;20.60;67.90
2363;DHT22;64265;51.664;7.626;2023-04-16T03:12:23;20.60;67.90
2363;DHT22;64265;51.664;7.626;2023-04-16T03:14:50;20.70;68.10
2363;DHT22;64265;51.664;7.626;2023-04-16T03:17:17;20.70;68.00
2363;DHT22;64265;51.664;7.626;2023-04-16T03:19:43;20.70;67.90
2363;DHT22;64265;51.664;7.626;2023-04-16T03:22:11;20.70;67.90
2363;DHT22;64265;51.664;7.626;2023-04-16T03:24:38;20.60;67.90
2363;DHT22;64265;51.664;7.626;2023-04-16T03:27:05;20.60;67.90
2363;DHT22;64265;51.664;7.626;2023-04-16T03:29:32;20.60;67.90
2363;DHT22;64265;51.664;7.626;2023-04-16T03:31:58;20.60;67.80
2363;DHT22;64265;51.664;7.626;2023-04-16T03:34:25;20.60;67.80
2363;DHT22;64265;51.664;7.626;2023-04-16T03:36:52;20.70;67.90
2363;DHT22;64265;51.664;7.626;2023-04-16T03:39:20;20.60;67.80
2363;DHT22;64265;51.664;7.626;2023-04-16T03:41:46;20.60;67.80
2363;DHT22;64265;51.664;7.626;2023-04-16T03:44:13;20.60;67.80
2363;DHT22;64265;51.664;7.626;2023-04-16T03:46:40;20.60;67.80
2363;DHT22;64265;51.664;7.626;2023-04-16T03:49:06;20.60;67.80
2363;DHT22;64265;51.664;7.626;2023-04-16T03:51:33;20.60;67.90
2363;DHT22;64265;51.664;7.626;2023-04-16T03:54:00;20.60;67.80
2363;DHT22;64265;51.664;7.626;2023-04-16T03:56:28;20.60;67.80
2363;DHT22;64265;51.664;7.626;2023-04-16T03:58:54;20.60;67.80
2363;DHT22;64265;51.664;7.626;2023-04-16T04:01:21;20.60;67.90
2363;DHT22;64265;51.664;7.626;2023-04-16T04:03:48;20.60;67.90
2363;DHT22;64265;51.664;7.626;2023-04-16T04:06:15;20.60;68.00
2363;DHT22;64265;51.664;7.626;2023-04-16T04:08:41;20.60;67.90
2363;DHT22;64265;51.664;7.626;2023-04-16T04:11:08;20.60;67.90
2363;DHT22;64265;51.664;7.626;2023-04-16T04:13:36;20.60;67.90
2363;DHT22;64265;51.664;7.626;2023-04-16T04:16:04;20.60;68.00
2363;DHT22;64265;51.664;7.626;2023-04-16T04:18:30;20.60;67.90
2363;DHT22;64265;51.664;7.626;2023-04-16T04:20:57;20.60;67.90
2363;DHT22;64265;51.664;7.626;2023-04-16T04:23:24;20.60;67.90
2363;DHT22;64265;51.664;7.626;2023-04-16T04:25:50;20.60;67.90
2363;DHT22;64265;51.664;7.626;2023-04-16T04:28:17;20.60;67.90
2363;DHT22;64265;51.664;7.626;2023-04-16T04:30:45;20.50;67.80
2363;DHT22;64265;51.664;7.626;2023-04-16T04:33:12;20.50;67.80
2363;DHT22;64265;51.664;7.626;2023-04-16T04:35:39;20.50;67.80
2363;DHT22;64265;51.664;7.626;2023-04-16T04:38:05;20.50;67.80
2363;DHT22;64265;51.664;7.626;2023-04-16T04:40:32;20.50;67.80
2363;DHT22;64265;51.664;7.626;2023-04-16T04:42:59;20.50;67.90
2363;DHT22;64265;51.664;7.626;2023-04-16T04:45:25;20.50;67.90
2363;DHT22;64265;51.664;7.626;2023-04-16T04:47:53;20.50;67.80
2363;DHT22;64265;51.664;7.626;2023-04-16T04:50:20;20.50;67.90
2363;DHT22;64265;51.664;7.626;2023-04-16T04:52:47;20.50;67.90
2363;DHT22;64265;51.664;7.626;2023-04-16T04:55:14;20.50;67.90
2363;DHT22;64265;51.664;7.626;2023-04-16T04:57:40;20.50;67.90
2363;DHT22;64265;51.664;7.626;2023-04-16T05:00:08;20.50;67.90
2363;DHT22;64265;51.664;7.626;2023-04-16T05:02:35;20.50;67.80
2363;DHT22;64265;51.664;7.626;2023-04-16T05:05:04;20.50;67.80
2363;DHT22;64265;51.664;7.626;2023-04-16T05:07:31;20.50;67.90
2363;DHT22;64265;51.664;7.626;2023-04-16T05:09:58;20.50;67.80
2363;DHT22;64265;51.664;7.626;2023-04-16T05:12:25;20.50;67.80
2363;DHT22;64265;51.664;7.626;2023-04-16T05:14:51;20.50;67.80
2363;DHT22;64265;51.664;7.626;2023-04-16T05:17:18;20.40;67.80
2363;DHT22;64265;51.664;7.626;2023-04-16T05:19:44;20.50;67.90
2363;DHT22;64265;51.664;7.626;2023-04-16T05:22:13;20.50;67.90
2363;DHT22;64265;51.664;7.626;2023-04-16T05:24:43;20.50;67.80
2363;DHT22;64265;51.664;7.626;2023-04-16T05:27:10;20.50;67.90
2363;DHT22;64265;51.664;7.626;2023-04-16T05:29:36;20.50;67.80
2363;DHT22;64265;51.664;7.626;2023-04-16T05:32:03;20.60;67.90
2363;DHT22;64265;51.664;7.626;2023-04-16T05:34:30;20.60;67.90
2363;DHT22;64265;51.664;7.626;2023-04-16T05:36:56;20.60;68.10
2363;DHT22;64265;51.664;7.626;2023-04-16T05:39:24;20.60;67.90
2363;DHT22;64265;51.664;7.626;2023-04-16T05:41:51;20.60;67.80
2363;DHT22;64265;51.664;7.626;2023-04-16T05:44:18;20.60;67.80
2363;DHT22;64265;51.664;7.626;2023-04-16T05:46:44;20.60;67.80
2363;DHT22;64265;51.664;7.626;2023-04-16T05:49:11;20.60;67.80
2363;DHT22;64265;51.664;7.626;2023-04-16T05:51:38;20.60;67.70
2363;DHT22;64265;51.664;7.626;2023-04-16T05:54:04;20.60;67.70
2363;DHT22;64265;51.664;7.626;2023-04-16T05:56:32;20.60;67.70
2363;DHT22;64265;51.664;7.626;2023-04-16T05:58:59;20.60;67.70
2363;DHT22;64265;51.664;7.626;2023-04-16T06:01:26;20.60;67.70
2363;DHT22;64265;51.664;7.626;2023-04-16T06:03:53;20.70;67.80
2363;DHT22;64265;51.664;7.626;2023-04-16T06:06:19;20.70;67.80
2363;DHT22;64265;51.664;7.626;2023-04-16T06:08:46;20.70;67.80
2363;DHT22;64265;51.664;7.626;2023-04-16T06:11:13;20.70;67.70
2363;DHT22;64265;51.664;7.626;2023-04-16T06:13:41;20.70;67.70
2363;DHT22;64265;51.664;7.626;2023-04-16T06:16:08;20.80;67.80
2363;DHT22;64265;51.664;7.626;2023-04-16T06:18:34;20.80;67.80
2363;DHT22;64265;51.664;7.626;2023-04-16T06:21:02;20.80;67.70
2363;DHT22;64265;51.664;7.626;2023-04-16T06:23:29;20.80;67.70
2363;DHT22;64265;51.664;7.626;2023-04-16T06:25:56;20.80;67.70
2363;DHT22;64265;51.664;7.626;2023-04-16T06:28:22;20.90;67.70
2363;DHT22;64265;51.664;7.626;2023-04-16T06:30:50;20.90;67.70
2363;DHT22;64265;51.664;7.626;2023-04-16T06:33:17;20.90;67.70
2363;DHT22;64265;51.664;7.626;2023-04-16T06:35:44;20.90;67.60
2363;DHT22;64265;51.664;7.626;2023-04-16T06:38:10;20.90;67.70
2363;DHT22;64265;51.664;7.626;2023-04-16T06:40:37;20.90;67.60
2363;DHT22;64265;51.664;7.626;2023-04-16T06:43:04;20.90;67.60
2363;DHT22;64265;51.664;7.626;2023-04-16T06:45:31;20.90;67.50
2363;DHT22;64265;51.664;7.626;2023-04-16T06:47:59;20.90;67.50
2363;DHT22;64265;51.664;7.626;2023-04-16T06:50:27;20.90;67.50
2363;DHT22;64265;51.664;7.626;2023-04-16T06:52:54;20.90;67.50
2363;DHT22;64265;51.664;7.626;2023-04-16T06:55:21;21.00;67.60
2363;DHT22;64265;51.664;7.626;2023-04-16T06:57:48;20.90;67.50
2363;DHT22;64265;51.664;7.626;2023-04-16T07:00:15;20.90;67.50
2363;DHT22;64265;51.664;7.626;2023-04-16T07:02:42;20.90;67.50
2363;DHT22;64265;51.664;7.626;2023-04-16T07:05:10;20.90;67.50
2363;DHT22;64265;51.664;7.626;2023-04-16T07:07:36;21.00;67.60
2363;DHT22;64265;51.664;7.626;2023-04-16T07:10:03;20.90;67.40
2363;DHT22;64265;51.664;7.626;2023-04-16T07:12:31;20.90;67.50
2363;DHT22;64265;51.664;7.626;2023-04-16T07:14:57;21.00;67.60
2363;DHT22;64265;51.664;7.626;2023-04-16T07:17:24;21.00;67.60
2363;DHT22;64265;51.664;7.626;2023-04-16T07:19:51;20.90;67.40
2363;DHT22;64265;51.664;7.626;2023-04-16T07:22:20;21.00;67.50
2363;DHT22;64265;51.664;7.626;2023-04-16T07:24:47;21.00;67.50
2363;DHT22;64265;51.664;7.626;2023-04-16T07:27:13;21.00;67.50
2363;DHT22;64265;51.664;7.626;2023-04-16T07:29:41;21.00;67.50
2363;DHT22;64265;51.664;7.626;2023-04-16T07:32:10;21.00;67.50
2363;DHT22;64265;51.664;7.626;2023-04-16T07:34:37;21.00;67.50
2363;DHT22;64265;51.664;7.626;2023-04-16T07:37:03;21.00;67.50
2363;DHT22;64265;51.664;7.626;2023-04-16T07:39:31;21.00;67.50
2363;DHT22;64265;51.664;7.626;2023-04-16T07:41:58;21.00;67.50
2363;DHT22;64265;51.664;7.626;2023-04-16T07:44:25;21.00;67.60
2363;DHT22;64265;51.664;7.626;2023-04-16T07:46:52;21.00;67.60
2363;DHT22;64265;51.664;7.626;2023-04-16T07:49:18;21.00;68.50
2363;DHT22;64265;51.664;7.626;2023-04-16T07:51:46;21.00;67.70
2363;DHT22;64265;51.664;7.626;2023-04-16T07:54:12;21.00;67.70
2363;DHT22;64265;51.664;7.626;2023-04-16T07:56:40;21.00;67.80
2363;DHT22;64265;51.664;7.626;2023-04-16T07:59:07;21.00;67.80
2363;DHT22;64265;51.664;7.626;2023-04-16T08:01:34;21.00;67.90
2363;DHT22;64265;51.664;7.626;2023-04-16T08:04:01;21.00;67.80
2363;DHT22;64265;51.664;7.626;2023-04-16T08:06:27;21.10;68.00
2363;DHT22;64265;51.664;7.626;2023-04-16T08:08:55;21.00;67.80
2363;DHT22;64265;51.664;7.626;2023-04-16T08:11:22;21.00;67.90
2363;DHT22;64265;51.664;7.626;2023-04-16T08:13:50;21.10;68.00
2363;DHT22;64265;51.664;7.626;2023-04-16T08:16:16;21.10;68.00
2363;DHT22;64265;51.664;7.626;2023-04-16T08:18:43;21.10;67.50
2363;DHT22;64265;51.664;7.626;2023-04-16T08:21:10;21.10;67.40
2363;DHT22;64265;51.664;7.626;2023-04-16T08:23:37;21.10;67.30
2363;DHT22;64265;51.664;7.626;2023-04-16T08:26:03;21.10;67.10
2363;DHT22;64265;51.664;7.626;2023-04-16T08:28:31;21.10;67.00
2363;DHT22;64265;51.664;7.626;2023-04-16T08:30:59;21.10;66.90
2363;DHT22;64265;51.664;7.626;2023-04-16T08:33:25;21.10;67.00
2363;DHT22;64265;51.664;7.626;2023-04-16T08:35:52;21.10;67.30
2363;DHT22;64265;51.664;7.626;2023-04-16T08:38:19;21.10;67.40
2363;DHT22;64265;51.664;7.626;2023-04-16T08:40:46;21.10;67.40
2363;DHT22;64265;51.664;7.626;2023-04-16T08:43:15;21.10;67.70
2363;DHT22;64265;51.664;7.626;2023-04-16T08:45:43;21.10;68.00
2363;DHT22;64265;51.664;7.626;2023-04-16T08:48:12;21.10;68.60
2363;DHT22;64265;51.664;7.626;2023-04-16T08:50:40;21.10;67.80
2363;DHT22;64265;51.664;7.626;2023-04-16T08:53:09;21.20;68.00
2363;DHT22;64265;51.664;7.626;2023-04-16T08:55:38;21.20;68.10
2363;DHT22;64265;51.664;7.626;2023-04-16T08:58:09;21.20;68.40
2363;DHT22;64265;51.664;7.626;2023-04-16T09:00:39;21.20;68.50
2363;DHT22;64265;51.664;7.626;2023-04-16T09:03:07;21.20;68.50
2363;DHT22;64265;51.664;7.626;2023-04-16T09:05:36;21.20;68.60
2363;DHT22;64265;51.664;7.626;2023-04-16T09:08:04;21.10;68.50
2363;DHT22;64265;51.664;7.626;2023-04-16T09:10:32;21.10;68.50
2363;DHT22;64265;51.664;7.626;2023-04-16T09:12:59;21.10;68.40
2363;DHT22;64265;51.664;7.626;2023-04-16T09:15:26;21.20;68.60
2363;DHT22;64265;51.664;7.626;2023-04-16T09:17:53;21.10;68.40
2363;DHT22;64265;51.664;7.626;2023-04-16T09:20:21;21.10;68.50
2363;DHT22;64265;51.664;7.626;2023-04-16T09:22:49;21.10;68.50
2363;DHT22;64265;51.664;7.626;2023-04-16T09:25:16;21.10;68.40
2363;DHT22;64265;51.664;7.626;2023-04-16T09:27:43;21.10;68.60
2363;DHT22;64265;51.664;7.626;2023-04-16T09:30:20;21.10;68.50
2363;DHT22;64265;51.664;7.626;2023-04-16T09:32:48;21.20;68.60
2363;DHT22;64265;51.664;7.626;2023-04-16T09:35:17;21.10;68.50
2363;DHT22;64265;51.664;7.626;2023-04-16T09:37:46;21.10;68.50
2363;DHT22;64265;51.664;7.626;2023-04-16T09:40:25;21.20;68.60
2363;DHT22;64265;51.664;7.626;2023-04-16T09:42:56;21.20;68.50
2363;DHT22;64265;51.664;7.626;2023-04-16T09:45:24;21.20;68.60
2363;DHT22;64265;51.664;7.626;2023-04-16T09:47:51;21.20;68.60
2363;DHT22;64265;51.664;7.626;2023-04-16T09:50:19;21.20;68.60
2363;DHT22;64265;51.664;7.626;2023-04-16T09:52:48;21.20;69.50
2363;DHT22;64265;51.664;7.626;2023-04-16T09:55:15;21.20;68.60
2363;DHT22;64265;51.664;7.626;2023-04-16T09:57:44;21.20;68.60
2363;DHT22;64265;51.664;7.626;2023-04-16T10:00:17;21.20;68.70
2363;DHT22;64265;51.664;7.626;2023-04-16T10:02:44;21.20;68.70
2363;DHT22;64265;51.664;7.626;2023-04-16T10:05:13;21.20;68.60
2363;DHT22;64265;51.664;7.626;2023-04-16T10:07:43;21.20;68.60
2363;DHT22;64265;51.664;7.626;2023-04-16T10:10:10;21.20;68.70
2363;DHT22;64265;51.664;7.626;2023-04-16T10:12:36;21.20;68.70
2363;DHT22;64265;51.664;7.626;2023-04-16T10:15:06;21.20;68.70
2363;DHT22;64265;51.664;7.626;2023-04-16T10:17:33;21.20;68.70
2363;DHT22;64265;51.664;7.626;2023-04-16T10:20:00;21.20;68.70
2363;DHT22;64265;51.664;7.626;2023-04-16T10:22:28;21.20;68.40
2363;DHT22;64265;51.664;7.626;2023-04-16T10:24:55;21.20;68.30
2363;DHT22;64265;51.664;7.626;2023-04-16T10:27:22;21.20;68.70
2363;DHT22;64265;51.664;7.626;2023-04-16T10:29:50;21.20;68.60
2363;DHT22;64265;51.664;7.626;2023-04-16T10:32:18;21.30;69.40
2363;DHT22;64265;51.664;7.626;2023-04-16T10:34:46;21.30;69.80
2363;DHT22;64265;51.664;7.626;2023-04-16T10:37:14;21.30;69.70
2363;DHT22;64265;51.664;7.626;2023-04-16T10:39:42;21.30;69.50
2363;DHT22;64265;51.664;7.626;2023-04-16T10:42:10;21.30;69.60
2363;DHT22;64265;51.664;7.626;2023-04-16T10:44:38;21.30;69.40
2363;DHT22;64265;51.664;7.626;2023-04-16T10:47:09;21.30;69.30
2363;DHT22;64265;51.664;7.626;2023-04-16T10:49:38;21.30;69.20
2363;DHT22;64265;51.664;7.626;2023-04-16T10:52:10;21.30;69.20
2363;DHT22;64265;51.664;7.626;2023-04-16T10:54:37;21.30;69.20
2363;DHT22;64265;51.664;7.626;2023-04-16T10:57:07;21.30;69.30
2363;DHT22;64265;51.664;7.626;2023-04-16T10:59:36;21.30;70.10
2363;DHT22;64265;51.664;7.626;2023-04-16T11:02:07;21.30;69.20
2363;DHT22;64265;51.664;7.626;2023-04-16T11:04:36;21.30;69.10
2363;DHT22;64265;51.664;7.626;2023-04-16T11:07:15;21.30;69.00
2363;DHT22;64265;51.664;7.626;2023-04-16T11:10:02;21.30;69.10
2363;DHT22;64265;51.664;7.626;2023-04-16T11:12:33;21.30;69.40
2363;DHT22;64265;51.664;7.626;2023-04-16T11:15:03;21.40;69.60
2363;DHT22;64265;51.664;7.626;2023-04-16T11:17:32;21.40;69.30
2363;DHT22;64265;51.664;7.626;2023-04-16T11:19:59;21.40;69.30
2363;DHT22;64265;51.664;7.626;2023-04-16T11:22:27;21.40;69.50
2363;DHT22;64265;51.664;7.626;2023-04-16T11:24:55;21.40;69.60
2363;DHT22;64265;51.664;7.626;2023-04-16T11:27:22;21.40;69.70
2363;DHT22;64265;51.664;7.626;2023-04-16T11:29:56;21.40;69.70
2363;DHT22;64265;51.664;7.626;2023-04-16T11:32:23;21.40;69.80
2363;DHT22;64265;51.664;7.626;2023-04-16T11:34:50;21.40;70.00
2363;DHT22;64265;51.664;7.626;2023-04-16T11:37:19;21.40;70.00
2363;DHT22;64265;51.664;7.626;2023-04-16T11:39:49;21.40;70.10
2363;DHT22;64265;51.664;7.626;2023-04-16T11:42:19;21.40;70.10
2363;DHT22;64265;51.664;7.626;2023-04-16T11:44:51;21.50;70.30
2363;DHT22;64265;51.664;7.626;2023-04-16T11:47:18;21.50;70.20
2363;DHT22;64265;51.664;7.626;2023-04-16T11:49:45;21.50;70.30
2363;DHT22;64265;51.664;7.626;2023-04-16T11:52:12;21.50;70.60
2363;DHT22;64265;51.664;7.626;2023-04-16T11:54:39;21.50;70.50
2363;DHT22;64265;51.664;7.626;2023-04-16T11:57:07;21.50;70.40
2363;DHT22;64265;51.664;7.626;2023-04-16T11:59:33;21.50;70.50
2363;DHT22;64265;51.664;7.626;2023-04-16T12:02:01;21.60;70.60
2363;DHT22;64265;51.664;7.626;2023-04-16T12:04:28;21.50;70.40
2363;DHT22;64265;51.664;7.626;2023-04-16T12:07:05;21.50;70.60
2363;DHT22;64265;51.664;7.626;2023-04-16T12:09:32;21.50;70.90
2363;DHT22;64265;51.664;7.626;2023-04-16T12:12:00;21.50;70.80
2363;DHT22;64265;51.664;7.626;2023-04-16T12:14:28;21.50;71.00
2363;DHT22;64265;51.664;7.626;2023-04-16T12:16:55;21.60;71.30
2363;DHT22;64265;51.664;7.626;2023-04-16T12:19:22;21.60;71.00
2363;DHT22;64265;51.664;7.626;2023-04-16T12:21:49;21.60;70.90
2363;DHT22;64265;51.664;7.626;2023-04-16T12:24:17;21.60;70.90
2363;DHT22;64265;51.664;7.626;2023-04-16T12:26:51;21.60;70.90
2363;DHT22;64265;51.664;7.626;2023-04-16T12:29:21;21.70;71.00
2363;DHT22;64265;51.664;7.626;2023-04-16T12:31:50;21.70;71.20
2363;DHT22;64265;51.664;7.626;2023-04-16T12:34:18;21.70;71.10
2363;DHT22;64265;51.664;7.626;2023-04-16T12:36:46;21.70;70.90
2363;DHT22;64265;51.664;7.626;2023-04-16T12:39:14;21.70;70.90
2363;DHT22;64265;51.664;7.626;2023-04-16T12:41:42;21.70;71.10
2363;DHT22;64265;51.664;7.626;2023-04-16T12:44:10;21.80;71.10
2363;DHT22;64265;51.664;7.626;2023-04-16T12:46:38;21.80;71.10
2363;DHT22;64265;51.664;7.626;2023-04-16T12:49:08;21.80;71.10
2363;DHT22;64265;51.664;7.626;2023-04-16T12:51:35;21.80;70.90
2363;DHT22;64265;51.664;7.626;2023-04-16T12:54:04;21.90;71.10
2363;DHT22;64265;51.664;7.626;2023-04-16T12:56:32;21.90;71.10
2363;DHT22;64265;51.664;7.626;2023-04-16T12:58:59;21.90;71.10
2363;DHT22;64265;51.664;7.626;2023-04-16T13:01:26;21.90;71.00
2363;DHT22;64265;51.664;7.626;2023-04-16T13:03:52;21.90;71.00
2363;DHT22;64265;51.664;7.626;2023-04-16T13:06:21;22.00;71.00
2363;DHT22;64265;51.664;7.626;2023-04-16T13:08:47;22.00;71.00
2363;DHT22;64265;51.664;7.626;2023-04-16T13:11:14;22.00;70.90
2363;DHT22;64265;51.664;7.626;2023-04-16T13:13:41;22.00;70.90
2363;DHT22;64265;51.664;7.626;2023-04-16T13:16:07;22.00;70.90
2363;DHT22;64265;51.664;7.626;2023-04-16T13:18:34;22.00;70.70
2363;DHT22;64265;51.664;7.626;2023-04-16T13:21:01;22.10;70.90
2363;DHT22;64265;51.664;7.626;2023-04-16T13:23:30;22.10;70.90
2363;DHT22;64265;51.664;7.626;2023-04-16T13:25:56;22.10;70.90
2363;DHT22;64265;51.664;7.626;2023-04-16T13:28:23;22.10;69.30
2363;DHT22;64265;51.664;7.626;2023-04-16T13:30:50;22.00;67.00
2363;DHT22;64265;51.664;7.626;2023-04-16T13:33:17;22.00;65.80
2363;DHT22;64265;51.664;7.626;2023-04-16T13:35:45;21.90;64.80
2363;DHT22;64265;51.664;7.626;2023-04-16T13:38:12;21.80;63.70
2363;DHT22;64265;51.664;7.626;2023-04-16T13:40:40;21.80;63.00
2363;DHT22;64265;51.664;7.626;2023-04-16T13:43:06;21.70;62.30
2363;DHT22;64265;51.664;7.626;2023-04-16T13:45:33;21.70;62.20
2363;DHT22;64265;51.664;7.626;2023-04-16T13:48:01;21.60;61.40
2363;DHT22;64265;51.664;7.626;2023-04-16T13:50:27;21.60;61.20
2363;DHT22;64265;51.664;7.626;2023-04-16T13:52:54;21.60;61.70
2363;DHT22;64265;51.664;7.626;2023-04-16T13:55:21;21.50;61.70
2363;DHT22;64265;51.664;7.626;2023-04-16T13:57:49;21.50;61.00
2363;DHT22;64265;51.664;7.626;2023-04-16T14:00:17;21.60;63.30
2363;DHT22;64265;51.664;7.626;2023-04-16T14:02:44;21.70;64.00
2363;DHT22;64265;51.664;7.626;2023-04-16T14:05:12;21.70;64.30
2363;DHT22;64265;51.664;7.626;2023-04-16T14:07:39;21.80;64.50
2363;DHT22;64265;51.664;7.626;2023-04-16T14:10:07;21.80;64.80
2363;DHT22;64265;51.664;7.626;2023-04-16T14:12:34;21.80;65.00
2363;DHT22;64265;51.664;7.626;2023-04-16T14:15:04;21.90;65.40
2363;DHT22;64265;51.664;7.626;2023-04-16T14:17:31;21.90;65.60
2363;DHT22;64265;51.664;7.626;2023-04-16T14:19:57;21.90;65.70
2363;DHT22;64265;51.664;7.626;2023-04-16T14:22:24;21.90;66.00
2363;DHT22;64265;51.664;7.626;2023-04-16T14:24:51;21.90;66.10
2363;DHT22;64265;51.664;7.626;2023-04-16T14:27:17;21.90;66.40
2363;DHT22;64265;51.664;7.626;2023-04-16T14:29:44;21.90;66.70
2363;DHT22;64265;51.664;7.626;2023-04-16T14:32:13;21.80;66.60
2363;DHT22;64265;51.664;7.626;2023-04-16T14:34:39;21.80;66.50
2363;DHT22;64265;51.664;7.626;2023-04-16T14:37:06;21.80;66.60
2363;DHT22;64265;51.664;7.626;2023-04-16T14:39:33;21.80;66.70
2363;DHT22;64265;51.664;7.626;2023-04-16T14:42:00;21.80;66.70
2363;DHT22;64265;51.664;7.626;2023-04-16T14:44:27;21.80;67.40
2363;DHT22;64265;51.664;7.626;2023-04-16T14:46:54;21.80;67.40
2363;DHT22;64265;51.664;7.626;2023-04-16T14:49:22;21.90;67.80
2363;DHT22;64265;51.664;7.626;2023-04-16T14:51:49;21.80;67.90
2363;DHT22;64265;51.664;7.626;2023-04-16T14:54:16;21.90;68.40
2363;DHT22;64265;51.664;7.626;2023-04-16T14:56:43;21.90;68.90
2363;DHT22;64265;51.664;7.626;2023-04-16T14:59:11;21.90;69.20
2363;DHT22;64265;51.664;7.626;2023-04-16T15:01:37;21.90;69.30
2363;DHT22;64265;51.664;7.626;2023-04-16T15:04:05;21.90;69.50
2363;DHT22;64265;51.664;7.626;2023-04-16T15:06:33;21.90;69.70
2363;DHT22;64265;51.664;7.626;2023-04-16T15:09:01;21.90;69.90
2363;DHT22;64265;51.664;7.626;2023-04-16T15:11:27;22.00;70.20
2363;DHT22;64265;51.664;7.626;2023-04-16T15:13:54;22.00;70.40
2363;DHT22;64265;51.664;7.626;2023-04-16T15:16:21;22.00;70.40
2363;DHT22;64265;51.664;7.626;2023-04-16T15:18:48;22.00;71.30
2363;DHT22;64265;51.664;7.626;2023-04-16T15:21:15;22.00;70.70
2363;DHT22;64265;51.664;7.626;2023-04-16T15:23:43;22.00;70.70
2363;DHT22;64265;51.664;7.626;2023-04-16T15:26:10;22.10;70.90
2363;DHT22;64265;51.664;7.626;2023-04-16T15:28:37;22.10;70.90
2363;DHT22;64265;51.664;7.626;2023-04-16T15:31:04;22.10;71.10
2363;DHT22;64265;51.664;7.626;2023-04-16T15:33:30;22.20;71.20
2363;DHT22;64265;51.664;7.626;2023-04-16T15:35:57;22.10;71.20
2363;DHT22;64265;51.664;7.626;2023-04-16T15:38:24;22.20;71.30
2363;DHT22;64265;51.664;7.626;2023-04-16T15:40:52;22.20;71.40
2363;DHT22;64265;51.664;7.626;2023-04-16T15:43:18;22.20;71.40
2363;DHT22;64265;51.664;7.626;2023-04-16T15:45:45;22.20;71.50